Flight Track Log - Related Links

Times and Time Zones

All times are in EDT time to prevent confusion due to time zone crossing. See the N8752E flight status page for this flight to view local times or setup timezone preferences in your user account.

Time Position Orientation Groundspeed Altitude Reporting Facility
EDT Latitude Longitude Course Direction KTS MPH feet Rate Location/Type
Sun 04:41:02 PM 42.2000 -71.2000 246° West 88 101 900  Level KA90
Sun 04:42:16 PM 42.1864 -71.2419 246° West 91 105 1,600 582 Climbing Boston Center
Sun 04:43:16 PM 42.1592 -71.2458 240° Southwest 118 136 2,200 645 Climbing Boston Center
Sun 04:44:17 PM 42.1311 -71.2194 145° Southeast 119 137 2,900 639 Climbing Boston Center
Sun 04:45:18 PM 42.1072 -71.1847 133° Southeast 123 142 3,500 639 Climbing Boston Center
Sun 04:46:19 PM 42.0847 -71.1494 131° Southeast 124 143 4,200 738 Climbing Boston Center
Sun 04:47:20 PM 42.0622 -71.1150 131° Southeast 118 136 5,000 624 Climbing Boston Center
Sun 04:48:24 PM 42.0386 -71.0794 132° Southeast 126 145 5,500 366 Climbing Boston Center
Sun 04:48:42 PM 42.0294 -71.0692 140° Southeast 132 152 5,500 400 Level Boston Center
Sun 04:49:24 PM 42.0147 -71.0431 127° Southeast 130 150 5,900 350 Climbing Boston Center
Sun 04:50:25 PM 41.9875 -71.0019 132° Southeast 134 154 6,100 82 Climbing Boston Center
Sun 04:50:37 PM 41.9817 -70.9942 135° Southeast 151 174 6,000  Descending Boston Center
Sun 04:51:26 PM 41.9561 -70.9592 134° Southeast 155 178 6,100 53 Climbing Boston Center
Sun 04:52:30 PM 41.9164 -70.9864 207° Southwest 160 184 6,100  Level Boston Center
Sun 04:53:31 PM 41.8753 -71.0178 210° Southwest 159 183 6,100 -50 Level Boston Center
Sun 04:54:29 PM 41.8375 -71.0464 209° Southwest 160 184 6,000 -53 Descending Boston Center
Sun 04:55:24 PM 41.8017 -71.0739 210° Southwest 164 189 6,000 48 Level Boston Center
Sun 04:56:34 PM 41.7575 -71.1119 213° Southwest 160 184 6,100  Climbing Boston Center
Sun 04:57:31 PM 41.7214 -71.1400 210° Southwest 155 178 6,000 -51 Descending Boston Center
Sun 04:58:32 PM 41.6836 -71.1669 208° Southwest 154 177 6,000 -49 Level Boston Center
Sun 04:59:33 PM 41.6469 -71.1997 214° Southwest 166 191 5,900  Descending Boston Center
Sun 05:00:28 PM 41.6111 -71.2269 210° Southwest 159 183 6,000 179 Climbing Boston Center
Sun 05:00:40 PM 41.6028 -71.2342 213° Southwest 161 185 6,100 82 Climbing Boston Center
Sun 05:01:41 PM 41.5631 -71.2644 210° Southwest 161 185 6,100 -55 Level Boston Center
Sun 05:02:30 PM 41.5311 -71.2903 211° Southwest 170 196 6,000 -94 Descending Boston Center
Sun 05:02:45 PM 41.5228 -71.2978 214° Southwest 166 191 6,000  Level Boston Center
Sun 05:03:30 PM 41.4922 -71.3219 211° Southwest 164 189 6,000  Level Boston Center
Sun 05:03:46 PM 41.4808 -71.3317 213° Southwest 166 191 6,000  Level Boston Center
Sun 05:04:31 PM 41.4489 -71.3553 209° Southwest 166 191 6,000  Level Boston Center
Sun 05:04:46 PM 41.4411 -71.3625 215° Southwest 166 191 6,000  Level Boston Center
Sun 05:05:37 PM 41.4047 -71.3908 210° Southwest 165 190 6,000  Level Boston Center
Sun 05:05:49 PM 41.4014 -71.3942 217° Southwest 166 191 6,000  Level Boston Center
Sun 05:06:38 PM 41.3658 -71.4228 211° Southwest 167 192 6,000  Level Boston Center
Sun 05:06:50 PM 41.3636 -71.4339 255° West 164 189 6,000  Level Boston Center
Sun 05:07:38 PM 41.3442 -71.4750 238° Southwest 153 176 6,000  Level Boston Center
Sun 05:07:50 PM 41.3408 -71.4833 242° Southwest 157 181 6,000  Level Boston Center
Sun 05:08:54 PM 41.3172 -71.5331 238° Southwest 158 182 6,000  Level Boston Center
Sun 05:09:42 PM 41.2956 -71.5747 235° Southwest 160 184 6,000  Level Boston Center
Sun 05:09:54 PM 41.2894 -71.5850 232° Southwest 158 182 6,000  Level Boston Center
Sun 05:10:37 PM 41.2728 -71.6211 238° Southwest 159 183 6,000 98 Level Boston Center
Sun 05:10:55 PM 41.2647 -71.6342 231° Southwest 159 183 6,100  Climbing Boston Center
Sun 05:11:44 PM 41.2472 -71.6719 238° Southwest 157 181 6,000  Descending Boston Center
Sun 05:11:56 PM 41.2408 -71.6822 230° Southwest 158 182 6,100  Climbing Boston Center
Sun 05:12:38 PM 41.2244 -71.7181 239° Southwest 154 177 6,000  Descending Boston Center
Sun 05:13:00 PM 41.2175 -71.7319 236° Southwest 147 169 6,100  Climbing Boston Center
Sun 05:13:39 PM 41.2014 -71.7667 238° Southwest 172 198 6,000  Descending Boston Center
Sun 05:14:01 PM 41.1922 -71.7833 234° Southwest 164 189 6,100 -90 Climbing Boston Center
Sun 05:14:46 PM 41.1583 -71.7967 197° South 182 209 5,900  Descending Boston Center
Sun 05:15:01 PM 41.1469 -71.7922 164° South 178 205 6,100 109 Climbing Boston Center
Sun 05:15:41 PM 41.1144 -71.7892 176° South 175 201 6,000  Descending Boston Center
Sun 05:16:02 PM 41.0953 -71.7858 173° South 176 203 6,100  Climbing Boston Center
Sun 05:16:42 PM 41.0639 -71.7822 175° South 177 204 6,000  Descending Boston Center
Sun 05:17:06 PM 41.0467 -71.7844 186° South 176 203 6,100  Climbing Boston Center
Sun 05:17:36 PM 41.0208 -71.7919 192° South 175 201 6,000 -100 Descending Boston Center
Sun 05:18:06 PM 41.0017 -71.7950 187° South 176 203 6,000  Level Boston Center
Sun 05:18:36 PM 40.9717 -71.7997 187° South 174 200 6,000  Level Boston Center
Sun 05:19:10 PM 40.9631 -71.8175 237° Southwest 177 204 6,000  Level Boston Center
Sun 05:19:43 PM 40.9631 -71.8708 270° West 161 185 6,000  Level Boston Center
Sun 05:20:11 PM 40.9597 -71.8864 254° West 162 186 6,000  Level Boston Center
Sun 05:20:46 PM 40.9564 -71.9225 263° West 146 168 6,000  Level Boston Center
Sun 05:21:13 PM 40.9533 -71.9411 258° West 156 180 6,000  Level Boston Center
Sun 05:21:46 PM 40.9514 -71.9778 266° West 151 174 6,000 -98 Level Boston Center
Sun 05:22:14 PM 40.9494 -71.9958 262° West 154 177 5,900 -68 Descending Boston Center
Sun 05:23:14 PM 40.9444 -72.0519 263° West 154 177 5,900  Level Boston Center
Sun 05:24:15 PM 40.9389 -72.1075 262° West 154 177 5,900  Level Boston Center
Sun 05:25:16 PM 40.9336 -72.1619 263° West 153 176 5,900  Level Boston Center
Sun 05:26:20 PM 40.9289 -72.2139 263° West 150 173 5,900  Level Boston Center
Sun 05:27:21 PM 40.9242 -72.2683 263° West 149 171 5,900 49 Level Boston Center
Sun 05:28:22 PM 40.9189 -72.3311 264° West 148 170 6,000 49 Climbing Boston Center
Sun 05:29:23 PM 40.9214 -72.3833 274° West 147 169 6,000  Level Boston Center
Sun 05:30:27 PM 40.9228 -72.4358 272° West 145 167 6,000  Level Boston Center
Sun 05:31:27 PM 40.9239 -72.4872 272° West 145 167 6,000  Level Boston Center
Sun 05:32:28 PM 40.9242 -72.5400 270° West 145 167 6,000  Level Boston Center
Sun 05:33:32 PM 40.9256 -72.5917 272° West 145 167 6,000  Level Boston Center
Sun 05:34:32 PM 40.9269 -72.6528 272° West 144 166 6,000  Level Boston Center
Sun 05:35:33 PM 40.9278 -72.7031 271° West 144 166 6,000  Level Boston Center
Sun 05:36:36 PM 40.9294 -72.7536 273° West 144 166 6,000  Level Boston Center
Sun 05:37:37 PM 40.9297 -72.8056 270° West 143 165 6,000  Level Boston Center
Sun 05:38:38 PM 40.9136 -72.8567 247° West 152 175 6,000  Level Boston Center
Sun 05:39:41 PM 40.8997 -72.9103 251° West 152 175 6,000 -290 Level Boston Center
Sun 05:40:42 PM 40.8814 -72.9783 250° West 160 184 5,400 -500 Descending Boston Center
Sun 05:41:41 PM 40.8667 -73.0333 251° West 169 194 5,000 -555 Descending New TRACON
Sun 05:42:41 PM 40.8500 -73.1000 252° West 169 194 4,300 -678 Descending New TRACON
Sun 05:43:36 PM 40.8333 -73.1500 246° West 169 194 3,700 -600 Descending New TRACON
Sun 05:44:41 PM 40.8167 -73.2167 252° West 163 188 3,100 -350 Descending New TRACON
Sun 05:45:36 PM 40.8000 -73.2500 237° Southwest 143 165 3,000 -50 Descending New TRACON
Sun 05:46:41 PM 40.7833 -73.3167 252° West 142 163 3,000 -192 Level New TRACON
Sun 05:47:41 PM 40.7500 -73.3333 201° Southwest 158 182 2,600 -316 Descending New TRACON
Sun 05:48:35 PM 40.7167 -73.3333 180° South 151 174 2,400 -261 Descending New TRACON
Sun 05:49:36 PM 40.6833 -73.3333 180° South 134 154 2,100 -571 Descending New TRACON
Sun 05:50:41 PM 40.6833 -73.3667 270° West 119 137 1,200 -400 Descending New TRACON
Sun 05:51:36 PM 40.6833 -73.4167 270° West 109 125 1,300 -500 Climbing New TRACON
Sun 05:52:41 PM 40.7167 -73.4167 360° North 94 108 200 -1,015 Descending New TRACON

Login

Don't have an account? Register now (free) for customized features, flight alerts, and more!